• Join FlightAware (Why Join?)
  • Login
  • US Flag 
12:59PM EDT


 

Airport Tracker/Info


-or-


 

Live Flight TrackerFlight Track Log ✈ N846SP ✈ 24-May-2013 ✈ KSBA - KTOA

Flight Track Log - Related Links

Times and Time Zones

All times are in EDT time to prevent confusion due to time zone crossing. See the N846SP flight status page for this flight to view local times or setup timezone preferences in your user account.

Time Position Orientation Groundspeed Altitude Reporting Facility
EDT Latitude Longitude Course Direction KTS MPH feet Rate Location/Type
07:23PM 34.3936 -119.8408 116° Southeast 70 81 1,100  Level Los Angeles Center
07:24PM 34.3828 -119.8414 182° South 69 79 1,200 180 Climbing Los Angeles Center
07:24PM 34.3678 -119.8414 180° South 91 105 1,300 180 Climbing Los Angeles Center
07:25PM 34.3544 -119.8433 187° South 81 93 1,400 420 Climbing Los Angeles Center
07:25PM 34.3475 -119.8375 145° Southeast 95 109 1,700 720 Climbing Los Angeles Center
07:26PM 34.3386 -119.8217 124° Southeast 91 105 2,200 600 Climbing Los Angeles Center
07:27PM 34.3303 -119.7933 110° East 90 104 2,800 600 Climbing Los Angeles Center
07:28PM 34.3398 -119.6291 116° Southeast  Level Estimated
07:28PM 34.3136 -119.7611 122° Southeast 92 106 3,500  Level Los Angeles Center
07:29PM 34.3008 -119.7336 119° Southeast 94 108 4,200 600 Climbing Los Angeles Center
07:30PM 34.2861 -119.7056 122° Southeast 96 110 4,800 660 Climbing Los Angeles Center
07:30PM 34.2833 -119.6883 101° East 91 105 5,300 540 Climbing Los Angeles Center
07:31PM 34.2828 -119.6825 97° East 93 107 5,400  Climbing Los Angeles Center
07:32PM 34.3150 -119.6550 35° Northeast 109 125 5,300 -60 Descending Los Angeles Center
07:33PM 34.3156 -119.6186 89° East 106 122 5,300  Level Los Angeles Center
07:34PM 34.3147 -119.5850 92° East 98 113 5,300 -60 Level Los Angeles Center
07:35PM 34.3144 -119.5539 91° East 106 122 5,200 -60 Descending Los Angeles Center
07:36PM 34.3169 -119.5167 85° East 99 114 5,200  Level Los Angeles Center
07:37PM 34.3208 -119.4842 82° East 96 110 5,300  Climbing Los Angeles Center
07:38PM 34.3200 -119.4539 92° East 97 112 5,300  Level Los Angeles Center
07:39PM 34.3319 -119.4078 73° East 102 117 5,400  Climbing Los Angeles Center
07:40PM 34.3406 -119.3686 75° East 108 124 5,400 -60 Level Los Angeles Center
07:41PM 34.3417 -119.3439 87° East 103 119 5,300  Descending Los Angeles Center
07:41PM 34.3472 -119.3300 64° Northeast 107 123 5,400  Climbing Los Angeles Center
07:42PM 34.3492 -119.3089 84° East 106 122 5,300 -60 Descending Los Angeles Center
07:43PM 34.3558 -119.2750 77° East 105 121 5,300  Level Los Angeles Center
07:44PM 34.3608 -119.2383 81° East 107 123 5,300  Level Los Angeles Center
07:45PM 34.3622 -119.1922 88° East 107 123 5,300 -60 Level Los Angeles Center
07:46PM 34.3567 -119.1608 102° East 107 123 5,200 -60 Descending Los Angeles Center
07:47PM 34.3503 -119.1267 103° East 106 122 5,200  Level Los Angeles Center
07:48PM 34.3453 -119.0964 101° East 105 121 5,300 60 Climbing Los Angeles Center
07:48PM 34.3436 -119.0931 121° Southeast 105 121 5,300 60 Level Los Angeles Center
07:49PM 34.3389 -119.0614 100° East 103 119 5,400  Climbing Los Angeles Center
07:51PM 34.3461 -119.0192 78° East 100 115 5,400  Level Los Angeles Center
07:52PM 34.3525 -118.9769 80° East 103 119 5,400  Level Los Angeles Center
07:53PM 34.3536 -118.9397 88° East 109 125 5,400 -60 Level Los Angeles Center
07:54PM 34.3417 -118.9111 117° Southeast 96 110 5,300 -60 Descending Los Angeles Center
07:55PM 34.3197 -118.8864 137° Southeast 105 121 5,300  Level Los Angeles Center
07:56PM 34.3003 -118.8583 130° Southeast 109 125 5,300  Level Los Angeles Center
07:57PM 34.2761 -118.8289 135° Southeast 106 122 5,300  Level Los Angeles Center
07:58PM 34.2581 -118.8044 132° Southeast 99 114 5,300 -240 Level Los Angeles Center
07:59PM 34.2381 -118.7786 133° Southeast 105 121 4,900 -420 Descending Los Angeles Center
08:00PM 34.2206 -118.7519 128° Southeast 103 119 4,500 -420 Descending Los Angeles Center
08:01PM 34.2028 -118.7244 128° Southeast 103 119 4,100 -480 Descending Los Angeles Center
08:02PM 34.1825 -118.6881 124° Southeast 106 122 3,600 -420 Descending Los Angeles Center
08:03PM 34.1653 -118.6561 123° Southeast 110 127 3,300 -120 Descending Los Angeles Center
08:04PM 34.1467 -118.6278 128° Southeast 110 127 3,400  Climbing Los Angeles Center
08:05PM 34.1253 -118.6053 139° Southeast 106 122 3,400 -60 Level Los Angeles Center
08:06PM 34.0983 -118.5789 141° Southeast 109 125 3,300 -120 Descending Los Angeles Center